Time;durP1;ratioP1;P1;durP2;ratioP2;P2;SDS_P1;SDS_P2;PMS_P1;PMS_P2;Temp;Humidity;BMP_temperature;BMP_pressure;BME280_temperature;BME280_humidity;BME280_pressure;Samples;Min_cycle;Max_cycle;Signal;HPM_P1;HPM_P2
2022/10/26 07:54:38;;;;;;;11.05;4.43;;;;;;;21.28;59.92;97518.91;5185115;27;20337;-34
2022/10/26 07:57:03;;;;;;;9.95;4.30;;;;;;;21.80;58.33;97507.09;5173586;27;20030;-34
2022/10/26 07:59:29;;;;;;;8.27;3.97;;;;;;;22.13;56.97;97504.16;5173536;27;20027;-33
2022/10/26 08:01:54;;;;;;;9.35;4.55;;;;;;;22.27;56.53;97507.41;5173389;27;20046;-33
2022/10/26 08:04:20;;;;;;;9.38;3.90;;;;;;;22.51;55.50;97511.56;5173227;27;20030;-33
2022/10/26 08:06:47;;;;;;;7.85;4.10;;;;;;;22.47;56.12;97511.00;5173050;27;20354;-33
2022/10/26 08:09:13;;;;;;;8.00;3.75;;;;;;;22.55;55.70;97512.13;5173291;27;20083;-34
2022/10/26 08:11:38;;;;;;;5.63;3.60;;;;;;;22.61;55.51;97520.53;5173090;27;20023;-33
2022/10/26 08:14:04;;;;;;;7.00;3.88;;;;;;;22.61;55.49;97511.47;5172915;27;20072;-35
2022/10/26 08:16:30;;;;;;;5.80;3.58;;;;;;;22.62;55.21;97518.50;5173125;27;20046;-33
2022/10/26 08:18:56;;;;;;;8.30;3.47;;;;;;;22.65;55.30;97520.28;5172918;27;20018;-33
2022/10/26 08:21:22;;;;;;;6.93;3.70;;;;;;;22.67;55.11;97526.13;5172943;27;20014;-33
2022/10/26 08:23:47;;;;;;;6.55;3.60;;;;;;;22.71;54.62;97529.44;5172796;27;20029;-33
2022/10/26 08:26:13;;;;;;;11.15;4.45;;;;;;;22.71;54.78;97521.91;5172765;27;20090;-33
2022/10/26 08:28:39;;;;;;;7.38;3.58;;;;;;;22.69;54.95;97532.69;5172753;27;20029;-34
2022/10/26 08:31:05;;;;;;;7.20;3.22;;;;;;;22.65;55.11;97531.34;5172615;27;20113;-34
2022/10/26 08:33:37;;;;;;;8.57;3.67;;;;;;;22.72;54.77;97528.22;5172625;27;20450;-33
2022/10/26 08:36:04;;;;;;;7.45;4.28;;;;;;;22.73;54.65;97529.72;5154003;27;20073;-33
2022/10/26 08:38:32;;;;;;;7.65;3.78;;;;;;;22.71;54.69;97521.91;5172440;27;20083;-34
2022/10/26 08:40:58;;;;;;;7.43;3.45;;;;;;;22.64;54.75;97516.78;5172968;27;20450;-33
2022/10/26 08:43:28;;;;;;;8.63;3.80;;;;;;;22.69;54.73;97526.41;5172770;27;20054;-33
2022/10/26 08:46:03;;;;;;;7.63;3.72;;;;;;;22.72;54.52;97526.22;5172660;27;20030;-34
2022/10/26 08:48:36;;;;;;;7.68;4.22;;;;;;;22.74;54.70;97522.97;5172366;27;20030;-33
2022/10/26 08:51:05;;;;;;;7.30;3.75;;;;;;;22.75;54.45;97524.50;5172337;27;20022;-33
2022/10/26 08:53:49;;;;;;;8.13;4.20;;;;;;;22.79;54.50;97530.59;5171900;27;20049;-35
2022/10/26 08:56:25;;;;;;;7.40;4.03;;;;;;;22.73;54.85;97524.22;5172249;27;20113;-33
2022/10/26 08:58:57;;;;;;;9.05;4.15;;;;;;;22.74;54.88;97531.25;5172147;27;20022;-34
2022/10/26 09:01:23;;;;;;;8.32;4.00;;;;;;;22.78;54.64;97531.84;5172106;27;20106;-34
2022/10/26 09:03:49;;;;;;;8.13;4.28;;;;;;;22.76;54.39;97531.53;5171228;27;20095;-33
2022/10/26 09:06:30;;;;;;;10.50;4.35;;;;;;;22.83;54.29;97536.69;5157809;27;20466;-33
2022/10/26 09:09:20;;;;;;;10.10;4.47;;;;;;;22.68;54.78;97544.22;5158188;27;20053;-36
2022/10/26 09:11:59;;;;;;;9.57;4.40;;;;;;;22.69;54.78;97540.22;5139668;27;20030;-34
2022/10/26 09:15:15;;;;;;;8.27;4.15;;;;;;;22.70;54.87;97533.47;5158144;27;20018;-34
2022/10/26 09:18:08;;;;;;;11.70;4.80;;;;;;;22.79;54.66;97542.41;5053761;28;20036;-33
2022/10/26 09:20:52;;;;;;;8.93;4.65;;;;;;;22.84;54.30;97532.69;5037473;28;20059;-34
2022/10/26 09:23:24;;;;;;;9.82;4.13;;;;;;;22.78;54.69;97523.53;5053915;28;20048;-33
2022/10/26 09:25:58;;;;;;;7.85;4.63;;;;;;;22.76;54.50;97531.53;5053526;28;20053;-33
2022/10/26 09:28:25;;;;;;;8.73;4.38;;;;;;;22.65;54.83;97531.34;5040847;28;20029;-33
2022/10/26 09:30:51;;;;;;;6.68;4.18;;;;;;;22.78;54.96;97526.31;5033001;28;20069;-33
2022/10/26 09:33:21;;;;;;;10.40;4.57;;;;;;;22.80;54.74;97526.59;5033663;28;20065;-34
2022/10/26 09:35:55;;;;;;;9.10;4.57;;;;;;;22.74;55.08;97537.56;5033624;28;20045;-34
2022/10/26 09:38:30;;;;;;;10.25;4.30;;;;;;;22.73;54.85;97543.56;5033753;28;20032;-36
2022/10/26 09:41:10;;;;;;;8.95;4.13;;;;;;;22.80;55.01;97543.19;5033724;28;20052;-34
2022/10/26 09:43:45;;;;;;;9.23;4.53;;;;;;;22.76;54.81;97537.84;5033656;28;20032;-33
2022/10/26 09:46:21;;;;;;;12.65;4.63;;;;;;;22.68;55.51;97541.47;5033475;28;20520;-33
2022/10/26 09:48:52;;;;;;;19.10;5.30;;;;;;;22.53;56.41;97542.25;5100708;27;20030;-33
2022/10/26 09:51:18;;;;;;;16.60;5.00;;;;;;;22.68;55.28;97541.47;5136222;27;20077;-33
2022/10/26 09:53:44;;;;;;;13.15;5.10;;;;;;;22.76;54.99;97553.66;5136132;27;20054;-33
2022/10/26 09:56:12;;;;;;;11.55;4.93;;;;;;;22.70;55.48;97553.56;5136822;27;20023;-33
2022/10/26 09:58:58;;;;;;;10.15;4.80;;;;;;;22.58;56.16;97555.41;5136592;27;20023;-33
2022/10/26 10:01:31;;;;;;;15.10;4.70;;;;;;;22.63;55.69;97558.72;5136372;27;20031;-33
2022/10/26 10:04:12;;;;;;;13.55;5.05;;;;;;;22.73;55.64;97560.16;5136381;27;20023;-33
2022/10/26 10:06:42;;;;;;;16.17;5.32;;;;;;;22.77;55.45;97566.25;5136254;27;20049;-35
2022/10/26 10:09:20;;;;;;;12.20;4.70;;;;;;;22.82;55.08;97560.81;5136253;27;20027;-33
2022/10/26 10:12:04;;;;;;;7.97;4.22;;;;;;;22.74;55.40;97561.69;5136249;27;20027;-34
2022/10/26 10:14:38;;;;;;;9.43;4.65;;;;;;;22.86;54.94;97563.41;5136103;27;20157;-33
2022/10/26 10:17:09;;;;;;;20.05;6.15;;;;;;;22.52;55.96;97562.84;5135468;27;20027;-34
2022/10/26 10:19:37;;;;;;;15.98;5.65;;;;;;;22.36;57.04;97555.06;5135973;27;20022;-33
2022/10/26 10:22:17;;;;;;;11.15;4.10;;;;;;;22.62;55.98;97562.75;5135738;27;20050;-34
2022/10/26 10:24:59;;;;;;;12.18;5.30;;;;;;;22.82;54.89;97562.81;5136322;27;20466;-34
2022/10/26 10:27:25;;;;;;;11.90;5.03;;;;;;;22.86;54.87;97564.16;5146785;27;20023;-34
2022/10/26 10:29:54;;;;;;;11.90;4.80;;;;;;;22.87;54.80;97562.16;5133779;27;20103;-34
2022/10/26 10:32:26;;;;;;;9.07;4.70;;;;;;;22.85;54.61;97567.41;5143731;27;20022;-34
2022/10/26 10:34:54;;;;;;;16.75;5.03;;;;;;;22.90;54.82;97570.22;5154412;27;20097;-35
2022/10/26 10:37:44;;;;;;;11.68;4.47;;;;;;;22.90;54.89;97563.94;5154064;27;20054;-34
2022/10/26 10:40:26;;;;;;;17.02;5.57;;;;;;;22.88;55.01;97560.88;5154354;27;20398;-33
2022/10/26 10:43:01;;;;;;;12.55;5.10;;;;;;;22.91;54.48;97557.94;5154020;27;20046;-33
2022/10/26 10:45:29;;;;;;;10.13;4.53;;;;;;;23.00;54.47;97557.03;5136036;27;20019;-33
2022/10/26 10:48:12;;;;;;;10.45;5.47;;;;;;;22.95;54.76;97554.97;5133519;27;20019;-35
2022/10/26 10:50:51;;;;;;;11.82;4.78;;;;;;;22.98;54.27;97550.47;5133161;27;20102;-33
2022/10/26 10:53:51;;;;;;;9.93;4.82;;;;;;;22.93;54.43;97546.38;5133185;27;20045;-34
2022/10/26 10:56:31;;;;;;;8.32;4.65;;;;;;;22.91;54.39;97548.88;5133388;27;20027;-34
2022/10/26 10:59:18;;;;;;;9.63;4.85;;;;;;;22.88;54.60;97545.06;5133292;27;20110;-33
2022/10/26 11:02:10;;;;;;;11.80;4.85;;;;;;;22.86;54.73;97547.56;5132948;27;20025;-33
2022/10/26 11:04:41;;;;;;;12.65;4.90;;;;;;;22.85;55.23;97561.88;5095874;27;20039;-34
2022/10/26 11:07:10;;;;;;;11.00;4.70;;;;;;;22.84;55.15;97546.50;5133056;27;20462;-35
2022/10/26 11:09:39;;;;;;;14.57;5.90;;;;;;;22.71;55.79;97548.81;5133071;27;20133;-33
2022/10/26 11:12:36;;;;;;;13.93;5.07;;;;;;;22.54;56.36;97546.53;5135246;27;20105;-33
2022/10/26 11:15:07;;;;;;;13.35;5.15;;;;;;;22.85;55.28;97546.03;5155854;27;20054;-34
2022/10/26 11:17:43;;;;;;;17.80;6.55;;;;;;;22.75;55.34;97550.13;5155822;27;20369;-33
2022/10/26 11:20:17;;;;;;;9.20;4.53;;;;;;;22.93;54.65;97551.91;5154755;27;20062;-35
2022/10/26 11:23:24;;;;;;;18.15;6.00;;;;;;;22.90;55.17;97550.09;5155000;27;20042;-33
2022/10/26 11:25:54;;;;;;;9.57;4.75;;;;;;;22.99;54.55;97549.25;5155525;27;20023;-36
2022/10/26 11:48:40;;;;;;;17.95;4.82;;;;;;;23.00;54.45;97540.44;5154596;27;20523;-33
2022/10/26 11:54:37;;;;;;;11.13;4.32;;;;;;;23.02;54.54;97532.41;4983194;27;20065;-33
2022/10/26 11:57:04;;;;;;;13.15;4.43;;;;;;;23.00;54.66;97529.38;5155172;27;20062;-36
2022/10/26 11:59:34;;;;;;;11.93;4.88;;;;;;;23.02;54.35;97528.88;5155077;27;20098;-33
2022/10/26 12:02:12;;;;;;;9.93;4.78;;;;;;;22.98;54.68;97522.81;5155223;27;20075;-33
2022/10/26 12:04:43;;;;;;;15.38;5.18;;;;;;;23.03;54.42;97528.41;5155345;27;20068;-33
2022/10/26 12:07:31;;;;;;;14.13;5.28;;;;;;;23.04;54.41;97520.88;5155170;27;20063;-35
2022/10/26 12:09:59;;;;;;;12.93;5.72;;;;;;;23.03;54.30;97528.41;5154901;27;20031;-34
2022/10/26 12:12:40;;;;;;;11.93;4.97;;;;;;;23.04;54.30;97521.63;5140036;27;20035;-33
2022/10/26 12:15:40;;;;;;;14.70;5.75;;;;;;;23.07;54.30;97517.91;5132307;28;20672;-33
2022/10/26 12:18:30;;;;;;;14.68;5.10;;;;;;;23.00;54.85;97529.38;5130361;28;20646;-33
2022/10/26 12:21:06;;;;;;;15.98;5.90;;;;;;;22.97;54.62;97530.34;5132130;27;20107;-33
2022/10/26 12:24:12;;;;;;;10.05;4.53;;;;;;;22.99;54.42;97521.56;5131814;27;20524;-33
2022/10/26 12:26:38;;;;;;;10.90;4.90;;;;;;;23.05;54.58;97517.63;5131831;27;20039;-33
2022/10/26 12:29:04;;;;;;;10.10;4.32;;;;;;;23.09;54.04;97514.66;5132207;27;20450;-34
2022/10/26 12:31:35;;;;;;;11.73;4.78;;;;;;;23.01;54.69;97511.53;5132233;27;20027;-33
2022/10/26 12:34:13;;;;;;;16.75;4.90;;;;;;;23.10;54.49;97514.19;5131999;27;20058;-33
2022/10/26 12:36:53;;;;;;;14.90;5.38;;;;;;;23.08;54.37;97519.44;5131707;27;20042;-34
2022/10/26 12:39:33;;;;;;;20.15;5.18;;;;;;;23.13;54.36;97515.19;5135859;27;20031;-33
2022/10/26 12:42:05;;;;;;;16.52;4.93;;;;;;;23.08;54.20;97516.66;5158510;27;20022;-33
2022/10/26 12:44:47;;;;;;;14.98;5.00;;;;;;;23.15;54.23;97519.00;5158607;27;20018;-33
2022/10/26 12:47:27;;;;;;;13.48;5.07;;;;;;;23.13;54.50;97513.19;5158365;27;20022;-34
2022/10/26 12:50:00;;;;;;;10.48;4.75;;;;;;;23.08;54.20;97518.66;5158347;27;20023;-33
2022/10/26 12:52:47;;;;;;;14.88;5.50;;;;;;;23.14;54.17;97513.94;5158524;27;20428;-33
2022/10/26 12:55:18;;;;;;;16.95;4.82;;;;;;;23.12;54.27;97514.44;5158246;27;20038;-33
2022/10/26 12:58:02;;;;;;;14.38;4.93;;;;;;;23.12;54.13;97508.91;5139814;27;20028;-33
2022/10/26 13:00:28;;;;;;;11.80;5.57;;;;;;;23.13;54.21;97513.19;5158122;27;20034;-33
2022/10/26 13:02:56;;;;;;;9.82;4.63;;;;;;;23.10;54.32;97516.94;5158062;27;20014;-33
2022/10/26 13:06:08;;;;;;;10.98;4.50;;;;;;;23.17;54.29;97504.69;5158032;27;20033;-33
2022/10/26 13:08:47;;;;;;;19.20;5.72;;;;;;;23.13;54.05;97507.66;5091356;27;20058;-35
2022/10/26 13:11:16;;;;;;;12.70;4.72;;;;;;;23.10;53.92;97505.88;5157965;27;20479;-33
2022/10/26 13:13:42;;;;;;;11.05;4.65;;;;;;;23.06;53.99;97508.09;5157882;27;20041;-34
2022/10/26 13:16:15;;;;;;;10.80;4.75;;;;;;;23.09;53.43;97504.34;5158080;27;20043;-33
2022/10/26 13:18:42;;;;;;;12.88;5.20;;;;;;;23.05;53.74;97503.78;5158059;27;20052;-34
2022/10/26 13:21:19;;;;;;;14.82;4.43;;;;;;;23.06;53.89;97505.31;5158038;27;20424;-34
2022/10/26 13:23:56;;;;;;;15.38;5.10;;;;;;;23.09;53.60;97496.06;5157993;27;20021;-33
2022/10/26 13:26:27;;;;;;;15.95;5.30;;;;;;;23.10;53.38;97496.81;5158052;27;20027;-34
2022/10/26 13:28:59;;;;;;;15.65;5.43;;;;;;;23.00;53.60;97506.47;5157664;27;20019;-33
2022/10/26 13:31:30;;;;;;;10.68;4.88;;;;;;;23.00;53.68;97504.47;5157928;27;20102;-33
2022/10/26 13:34:20;;;;;;;13.88;5.38;;;;;;;23.01;53.38;97503.22;5157485;27;20030;-33
2022/10/26 13:37:24;;;;;;;13.55;4.70;;;;;;;23.06;53.41;97510.09;5157485;27;20022;-33
2022/10/26 13:39:54;;;;;;;14.50;4.97;;;;;;;22.99;53.28;97508.50;5157518;27;20479;-33
2022/10/26 13:42:25;;;;;;;10.48;4.50;;;;;;;22.95;53.72;97505.19;5152605;27;20026;-33
2022/10/26 13:45:05;;;;;;;9.77;4.53;;;;;;;23.04;53.49;97507.03;5136710;27;20072;-34
2022/10/26 13:47:45;;;;;;;12.15;4.82;;;;;;;22.97;53.54;97511.00;5136661;27;20026;-33
2022/10/26 13:50:16;;;;;;;12.25;4.65;;;;;;;22.95;53.48;97502.41;5136386;27;20019;-33
2022/10/26 13:52:46;;;;;;;11.75;3.92;;;;;;;23.01;53.42;97500.47;5136296;27;20035;-36
2022/10/26 13:55:36;;;;;;;11.13;4.50;;;;;;;22.99;53.25;97497.44;5136486;27;20039;-33
2022/10/26 13:58:36;;;;;;;12.52;4.65;;;;;;;23.05;53.09;97501.03;5136492;27;20052;-34
2022/10/26 14:01:23;;;;;;;10.60;4.50;;;;;;;23.03;53.56;97506.28;5136321;27;20023;-33
2022/10/26 14:03:50;;;;;;;11.82;4.85;;;;;;;22.99;53.65;97513.28;5143632;27;20474;-35
2022/10/26 14:06:38;;;;;;;7.40;4.10;;;;;;;23.01;53.38;97519.06;5154988;27;20027;-34
2022/10/26 14:09:10;;;;;;;11.52;4.50;;;;;;;23.00;53.26;97515.53;5155148;27;20102;-34
2022/10/26 14:11:45;;;;;;;10.27;4.40;;;;;;;23.00;53.32;97526.59;5154836;27;20026;-34
2022/10/26 14:14:31;;;;;;;8.27;3.85;;;;;;;23.01;53.58;97524.59;5154674;27;20386;-34
2022/10/26 14:16:58;;;;;;;11.13;4.22;;;;;;;22.89;53.75;97529.22;5154258;27;20023;-36
2022/10/26 14:19:31;;;;;;;10.02;5.35;;;;;;;22.99;53.38;97519.56;5136199;27;20101;-34
2022/10/26 14:21:57;;;;;;;9.35;4.43;;;;;;;22.98;53.79;97520.81;5154610;27;20106;-34
2022/10/26 14:24:26;;;;;;;9.57;4.70;;;;;;;22.97;53.63;97526.81;5136046;27;20097;-33
2022/10/26 14:26:52;;;;;;;11.50;4.45;;;;;;;23.01;53.55;97524.59;5154482;27;20033;-35
2022/10/26 14:29:21;;;;;;;12.38;4.60;;;;;;;23.06;53.38;97526.69;5154414;27;20037;-33
2022/10/26 14:31:50;;;;;;;10.77;4.85;;;;;;;23.09;53.60;97528.50;5154419;27;20034;-34
2022/10/26 14:34:17;;;;;;;12.00;5.30;;;;;;;23.09;53.43;97528.50;5154218;27;20492;-35
2022/10/26 14:36:58;;;;;;;9.35;5.07;;;;;;;23.03;53.42;97525.63;5154395;27;20022;-35
2022/10/26 14:39:43;;;;;;;12.02;5.80;;;;;;;22.97;53.71;97530.34;5154080;27;20030;-35
2022/10/26 14:42:31;;;;;;;11.65;6.22;;;;;;;23.05;53.63;97525.16;5152629;27;20500;-34
2022/10/26 14:44:57;;;;;;;9.82;5.68;;;;;;;23.09;53.48;97531.25;5154347;27;20367;-34
2022/10/26 14:47:27;;;;;;;12.20;5.85;;;;;;;23.04;53.88;97534.69;5154229;27;20110;-34
2022/10/26 14:49:53;;;;;;;16.00;6.90;;;;;;;23.02;53.78;97532.41;5135759;27;20023;-34
2022/10/26 14:52:25;;;;;;;13.77;7.20;;;;;;;22.95;53.95;97537.59;5153801;27;20078;-34
2022/10/26 14:55:02;;;;;;;12.48;6.40;;;;;;;22.99;53.92;97532.66;5154057;27;20066;-34
2022/10/26 14:57:36;;;;;;;11.93;6.30;;;;;;;22.98;54.02;97531.88;5153963;27;20041;-34
2022/10/26 15:00:11;;;;;;;13.15;6.70;;;;;;;23.00;53.89;97534.13;5153906;27;20030;-35
2022/10/26 15:02:38;;;;;;;13.52;7.03;;;;;;;22.95;53.88;97532.84;5153315;27;20022;-37
2022/10/26 15:05:18;;;;;;;12.10;6.30;;;;;;;23.02;53.65;97526.88;5153502;27;20102;-35
2022/10/26 15:07:44;;;;;;;13.48;6.32;;;;;;;23.05;53.77;97525.94;5155887;27;20121;-34
2022/10/26 15:10:37;;;;;;;13.30;6.50;;;;;;;23.11;53.43;97531.53;5155585;27;20374;-35
2022/10/26 15:13:26;;;;;;;10.95;6.45;;;;;;;23.07;53.55;97528.22;5155118;27;20486;-34
2022/10/26 15:15:53;;;;;;;12.63;6.53;;;;;;;23.11;53.28;97526.00;5154960;27;20039;-34
2022/10/26 15:18:27;;;;;;;11.48;6.70;;;;;;;23.11;53.74;97526.78;5155743;27;20014;-34
2022/10/26 15:20:55;;;;;;;16.00;7.22;;;;;;;23.09;53.46;97532.03;5155451;27;20462;-34
2022/10/26 15:23:22;;;;;;;11.75;7.00;;;;;;;23.04;53.88;97535.47;5137097;27;20097;-34
2022/10/26 15:25:56;;;;;;;12.10;6.93;;;;;;;23.06;53.98;97537.75;5155390;27;20022;-34
2022/10/26 15:28:37;;;;;;;10.65;6.47;;;;;;;23.04;53.67;97532.69;5155667;27;20446;-34
2022/10/26 15:31:28;;;;;;;12.20;6.93;;;;;;;23.08;53.57;97529.75;5155081;27;20027;-35
2022/10/26 15:33:53;;;;;;;8.70;5.88;;;;;;;23.11;53.59;97526.78;5155151;27;20015;-34
2022/10/26 15:36:24;;;;;;;14.15;7.53;;;;;;;23.08;53.64;97524.19;5155184;27;20045;-34
2022/10/26 15:38:50;;;;;;;14.57;7.40;;;;;;;23.04;53.87;97529.16;5155161;27;20057;-34
2022/10/26 15:41:30;;;;;;;11.88;7.90;;;;;;;23.06;53.79;97527.44;5155228;27;20022;-33
2022/10/26 15:44:00;;;;;;;12.18;7.60;;;;;;;23.09;53.84;97531.25;5155077;27;20041;-34
2022/10/26 15:46:30;;;;;;;14.73;8.05;;;;;;;23.14;53.92;97538.84;5155269;27;20025;-34
2022/10/26 15:48:58;;;;;;;12.68;8.40;;;;;;;23.18;53.46;97540.19;5155076;27;20042;-34
2022/10/26 15:51:24;;;;;;;17.25;9.88;;;;;;;23.13;53.77;97540.09;5155118;27;20015;-34
2022/10/26 15:53:50;;;;;;;16.38;9.57;;;;;;;23.07;54.03;97545.56;5154743;27;20125;-34
2022/10/26 15:56:19;;;;;;;17.45;10.15;;;;;;;23.05;54.15;97545.28;5155123;27;20529;-35
2022/10/26 15:58:44;;;;;;;15.63;8.93;;;;;;;23.13;53.74;97545.63;5154978;27;20053;-34
2022/10/26 16:01:15;;;;;;;12.85;9.55;;;;;;;23.07;54.14;97544.81;5154995;27;20514;-34
2022/10/26 16:03:40;;;;;;;16.75;9.35;;;;;;;23.01;54.06;97544.72;5155083;27;20063;-35
2022/10/26 16:06:12;;;;;;;15.30;9.52;;;;;;;23.06;54.08;97541.28;5155018;27;20022;-34
2022/10/26 16:08:38;;;;;;;16.98;9.90;;;;;;;23.01;54.56;97541.19;5155144;27;20034;-35
2022/10/26 16:11:04;;;;;;;15.15;9.52;;;;;;;22.99;54.63;97540.94;5154964;27;20070;-34
2022/10/26 16:13:29;;;;;;;13.93;8.52;;;;;;;22.99;54.55;97549.25;5154765;27;20382;-35
2022/10/26 16:15:55;;;;;;;13.27;8.57;;;;;;;22.99;54.56;97547.25;5157997;27;20381;-38
2022/10/26 16:18:21;;;;;;;17.90;9.57;;;;;;;23.01;54.20;97557.78;5159097;27;20038;-34
2022/10/26 16:20:47;;;;;;;12.82;8.88;;;;;;;22.98;54.29;97559.53;5158900;27;20019;-36
2022/10/26 16:23:13;;;;;;;13.68;8.32;;;;;;;22.99;54.50;97561.06;5158972;27;20067;-34
2022/10/26 16:25:43;;;;;;;15.18;9.18;;;;;;;23.00;54.49;97553.50;5158760;27;20512;-34
2022/10/26 16:28:14;;;;;;;14.73;8.30;;;;;;;23.01;54.36;97557.78;5158869;27;20027;-34
2022/10/26 16:30:40;;;;;;;18.52;8.10;;;;;;;23.09;54.29;97567.22;5140324;27;20063;-34
2022/10/26 16:33:05;;;;;;;16.73;8.18;;;;;;;23.08;54.01;97566.47;5158909;27;20026;-34
2022/10/26 16:35:31;;;;;;;11.07;7.60;;;;;;;23.04;54.17;97562.38;5158842;27;20026;-34
2022/10/26 16:37:56;;;;;;;14.45;8.00;;;;;;;23.03;54.16;97572.69;5159274;27;20455;-33
2022/10/26 16:40:22;;;;;;;15.43;8.00;;;;;;;23.02;54.55;97575.91;5158602;27;20518;-34
2022/10/26 16:42:47;;;;;;;11.85;7.00;;;;;;;23.01;54.50;97569.63;5158643;27;20049;-34
2022/10/26 16:45:14;;;;;;;12.25;6.60;;;;;;;23.04;54.38;97576.97;5158764;27;20026;-34
2022/10/26 16:47:40;;;;;;;13.05;7.15;;;;;;;23.03;54.32;97572.69;5158367;27;20047;-33
2022/10/26 16:50:10;;;;;;;13.57;7.50;;;;;;;23.01;54.00;97579.94;5158672;27;20023;-34
2022/10/26 16:52:37;;;;;;;14.73;7.15;;;;;;;23.02;54.51;97581.47;5158367;27;20026;-34
2022/10/26 16:55:05;;;;;;;13.45;7.40;;;;;;;23.02;54.03;97576.69;5158199;27;20050;-34
2022/10/26 16:57:31;;;;;;;14.38;7.25;;;;;;;23.02;54.06;97584.22;5158237;27;20478;-34
2022/10/26 16:59:57;;;;;;;15.63;7.57;;;;;;;23.03;54.32;97582.97;5158545;27;20033;-34
2022/10/26 17:02:23;;;;;;;18.35;7.32;;;;;;;22.99;54.17;97576.91;5158040;27;20026;-34
2022/10/26 17:04:48;;;;;;;14.15;7.53;;;;;;;23.02;54.39;97576.69;5156703;27;20542;-34
2022/10/26 17:07:14;;;;;;;13.43;6.90;;;;;;;23.00;54.05;97590.22;5156958;27;20022;-34
2022/10/26 17:09:39;;;;;;;13.38;6.85;;;;;;;23.02;54.24;97587.00;5158218;27;20023;-35
2022/10/26 17:12:05;;;;;;;14.70;7.28;;;;;;;23.05;54.24;97589.56;5157989;27;20522;-34
2022/10/26 17:14:31;;;;;;;12.65;7.53;;;;;;;23.03;53.91;97592.03;5158109;27;20042;-34
2022/10/26 17:16:57;;;;;;;13.70;6.95;;;;;;;23.03;54.23;97594.81;5158330;27;20070;-34
2022/10/26 17:19:23;;;;;;;14.52;6.78;;;;;;;23.04;53.92;97599.09;5157806;27;20018;-34
2022/10/26 17:21:48;;;;;;;8.88;6.30;;;;;;;23.04;53.91;97596.34;5157770;27;20079;-34
2022/10/26 17:24:13;;;;;;;15.27;6.97;;;;;;;23.00;53.99;97595.75;5153341;27;20084;-34
2022/10/26 17:26:40;;;;;;;15.93;7.05;;;;;;;23.02;54.22;97598.81;5145912;27;20047;-33
2022/10/26 17:29:06;;;;;;;12.57;7.03;;;;;;;23.02;54.11;97604.34;5155783;27;20023;-34
2022/10/26 17:31:33;;;;;;;16.13;6.70;;;;;;;23.01;54.28;97611.13;5118530;27;20027;-34
2022/10/26 17:33:58;;;;;;;9.38;5.95;;;;;;;23.00;54.11;97609.59;5134970;27;20103;-34
2022/10/26 17:36:25;;;;;;;11.90;7.07;;;;;;;22.98;54.20;97612.09;5134732;27;20713;-34
2022/10/26 17:38:52;;;;;;;17.13;6.88;;;;;;;22.09;53.51;97624.41;5134962;27;20084;-34
2022/10/26 17:41:19;;;;;;;22.50;7.10;;;;;;;22.15;53.13;97625.25;5116108;27;20035;-33
2022/10/26 17:43:47;;;;;;;19.65;6.63;;;;;;;22.54;53.30;97617.66;5153519;27;20144;-32
2022/10/26 17:46:14;;;;;;;23.58;7.70;;;;;;;22.58;54.25;97615.47;5155381;27;20104;-32
2022/10/26 17:48:39;;;;;;;21.45;6.75;;;;;;;22.69;53.72;97621.19;5155041;27;20030;-32
2022/10/26 17:51:10;;;;;;;20.83;7.32;;;;;;;23.03;53.09;97622.47;5136362;27;20022;-32
2022/10/26 17:53:35;;;;;;;17.65;5.78;;;;;;;23.13;52.79;97623.13;5132879;27;20066;-32
2022/10/26 17:56:04;;;;;;;20.80;6.30;;;;;;;23.27;52.40;97628.59;5134627;27;20551;-32
2022/10/26 17:58:30;;;;;;;18.70;6.28;;;;;;;23.38;52.02;97635.53;5133123;27;20096;-32
2022/10/26 18:01:00;;;;;;;19.83;5.57;;;;;;;23.44;51.72;97630.84;5134284;27;20050;-32
2022/10/26 18:03:26;;;;;;;14.80;5.15;;;;;;;23.54;51.35;97648.88;5132964;27;20163;-32
2022/10/26 18:05:52;;;;;;;15.95;5.65;;;;;;;23.56;51.68;97640.84;5134198;27;20259;-32
2022/10/26 18:08:18;;;;;;;16.27;6.25;;;;;;;23.58;51.28;97639.13;5134336;27;20026;-32
2022/10/26 18:10:57;;;;;;;12.70;5.30;;;;;;;23.55;51.44;97645.63;5134133;27;20019;-33
2022/10/26 18:13:23;;;;;;;18.80;6.80;;;;;;;23.68;50.94;97648.06;5133949;27;20443;-32
2022/10/26 18:15:48;;;;;;;15.45;5.68;;;;;;;23.69;50.88;97646.81;5134084;27;20057;-33
2022/10/26 18:18:26;;;;;;;15.98;5.75;;;;;;;23.68;51.27;97639.00;5132106;27;20360;-32
2022/10/26 18:20:51;;;;;;;16.90;6.28;;;;;;;23.74;50.82;97646.09;5113430;28;20053;-33
2022/10/26 18:23:17;;;;;;;15.95;5.85;;;;;;;23.72;50.94;97647.84;5113365;28;20024;-32
2022/10/26 18:25:42;;;;;;;13.20;5.38;;;;;;;23.75;50.71;97647.63;5113352;28;20027;-34
2022/10/26 18:28:07;;;;;;;11.65;5.40;;;;;;;23.77;50.71;97647.91;5113365;28;20039;-32
2022/10/26 18:30:33;;;;;;;13.20;5.72;;;;;;;23.70;50.90;97651.09;5113089;28;20405;-33
2022/10/26 18:32:59;;;;;;;13.60;5.97;;;;;;;23.75;50.62;97647.63;5111714;28;20024;-32
2022/10/26 18:35:24;;;;;;;15.52;6.10;;;;;;;23.78;50.77;97657.75;5112858;28;20031;-32
2022/10/26 18:37:50;;;;;;;15.65;5.68;;;;;;;23.78;50.67;97654.97;5112210;28;20475;-34
2022/10/26 18:40:15;;;;;;;21.10;6.40;;;;;;;23.79;50.55;97658.50;5113035;28;20019;-32
2022/10/26 18:42:40;;;;;;;15.23;5.75;;;;;;;23.80;50.90;97660.78;5112846;28;20498;-32
2022/10/26 18:45:06;;;;;;;18.08;6.35;;;;;;;23.79;50.79;97664.81;5112299;28;20028;-33
2022/10/26 18:47:32;;;;;;;13.82;5.60;;;;;;;23.80;50.69;97660.78;5092321;28;20052;-32
2022/10/26 18:49:58;;;;;;;15.90;5.65;;;;;;;23.78;50.60;97663.28;5092587;28;20027;-32
2022/10/26 18:52:26;;;;;;;13.65;6.40;;;;;;;23.75;51.21;97669.03;5092552;28;20543;-32
2022/10/26 18:54:54;;;;;;;18.08;6.70;;;;;;;23.79;51.00;97664.06;5127182;27;20509;-32
2022/10/26 18:57:25;;;;;;;14.35;5.90;;;;;;;23.82;50.96;97663.09;5133112;27;20038;-33
2022/10/26 18:59:51;;;;;;;14.82;5.95;;;;;;;23.84;50.87;97666.91;5131648;27;20034;-32
2022/10/26 19:02:17;;;;;;;15.90;5.95;;;;;;;23.78;51.24;97674.38;5133129;27;20041;-32
2022/10/26 19:04:42;;;;;;;12.65;5.60;;;;;;;23.85;50.90;97676.75;5133172;27;20015;-33
2022/10/26 19:07:07;;;;;;;13.90;6.03;;;;;;;23.83;51.04;97676.47;5133006;27;20033;-32
2022/10/26 19:09:33;;;;;;;14.02;5.68;;;;;;;23.82;51.29;97674.94;5133159;27;20082;-32
2022/10/26 19:11:58;;;;;;;13.52;5.72;;;;;;;23.85;51.08;97665.66;5114492;27;20371;-32
2022/10/26 19:14:24;;;;;;;13.55;5.43;;;;;;;23.81;51.34;97667.88;5132958;27;20511;-32
2022/10/26 19:16:50;;;;;;;17.30;7.07;;;;;;;23.76;51.56;97671.31;5132832;27;20027;-32
2022/10/26 19:19:17;;;;;;;13.75;5.97;;;;;;;23.77;51.52;97672.84;5143128;27;20034;-32
2022/10/26 19:21:44;;;;;;;16.40;6.10;;;;;;;23.78;51.53;97679.16;5153568;27;20031;-33
2022/10/26 19:24:13;;;;;;;18.10;6.07;;;;;;;23.75;51.72;97663.50;5134564;27;20023;-32
2022/10/26 19:26:38;;;;;;;12.85;5.22;;;;;;;23.75;51.49;97672.56;5153529;27;20458;-32
2022/10/26 19:29:06;;;;;;;15.55;6.10;;;;;;;23.72;51.78;97665.25;5153332;27;20057;-32
2022/10/26 19:31:32;;;;;;;16.80;5.90;;;;;;;23.71;51.70;97677.56;5153271;27;20079;-32
2022/10/26 19:33:59;;;;;;;16.88;6.60;;;;;;;23.78;51.60;97674.38;5153159;27;20023;-33
2022/10/26 19:36:26;;;;;;;14.93;6.30;;;;;;;23.80;51.61;97682.97;5153116;27;20130;-32
2022/10/26 19:38:52;;;;;;;13.93;5.57;;;;;;;23.76;51.69;97690.69;5134622;27;20363;-32
2022/10/26 19:41:20;;;;;;;11.13;5.90;;;;;;;23.75;51.57;97691.94;5153302;27;20034;-32
2022/10/26 19:43:45;;;;;;;13.80;6.28;;;;;;;23.71;52.08;97688.66;5153337;27;20046;-32
2022/10/26 19:46:19;;;;;;;12.68;5.90;;;;;;;23.74;52.09;97687.66;5153142;27;20447;-32
2022/10/26 19:48:50;;;;;;;15.27;6.38;;;;;;;23.73;52.13;97688.16;5152773;27;20030;-32
2022/10/26 19:51:16;;;;;;;12.10;5.78;;;;;;;23.74;51.90;97692.47;5134507;27;20416;-32
2022/10/26 19:53:42;;;;;;;16.40;6.47;;;;;;;23.77;51.86;97699.78;5152762;27;20410;-32
2022/10/26 19:56:12;;;;;;;12.82;5.85;;;;;;;23.76;52.11;97699.00;5153053;27;20026;-33
2022/10/26 19:58:39;;;;;;;13.00;7.55;;;;;;;23.71;52.23;97701.72;5151239;27;20442;-32
2022/10/26 20:01:05;;;;;;;12.48;6.10;;;;;;;23.70;52.08;97689.88;5152879;27;20046;-31
2022/10/26 20:03:31;;;;;;;13.27;6.47;;;;;;;23.70;52.02;97698.19;5153184;27;20026;-31
2022/10/26 20:06:00;;;;;;;14.23;6.68;;;;;;;23.74;52.27;97695.97;5153048;27;20030;-32